createdAt,value
2017-06-05T00:00:20.930Z,61.85
2017-06-05T00:02:22.812Z,61.66
2017-06-05T00:04:24.344Z,61.66
2017-06-05T00:06:25.914Z,62.20
2017-06-05T00:08:27.385Z,62.43
2017-06-05T00:10:28.845Z,61.94
2017-06-05T00:12:30.314Z,62.01
2017-06-05T00:14:31.747Z,61.57
2017-06-05T00:16:33.623Z,62.49
2017-06-05T00:18:35.106Z,62.49
2017-06-05T00:20:37.388Z,62.68
2017-06-05T00:22:39.266Z,62.59
2017-06-05T00:24:40.756Z,62.68
2017-06-05T00:26:43.535Z,62.30
2017-06-05T00:28:45.882Z,62.59
2017-06-05T00:30:47.516Z,62.97
2017-06-05T00:32:48.997Z,63.35
2017-06-05T00:34:50.443Z,62.77
2017-06-05T00:36:52.785Z,62.30
2017-06-05T00:38:55.198Z,61.91
2017-06-05T00:40:56.661Z,62.87
2017-06-05T00:42:58.125Z,62.59
2017-06-05T00:44:59.611Z,62.87
2017-06-05T00:47:01.992Z,62.68
2017-06-05T00:49:03.446Z,63.06
2017-06-05T00:51:04.906Z,63.54
2017-06-05T00:53:06.388Z,62.87
2017-06-05T00:55:08.404Z,62.84
2017-06-05T00:57:09.940Z,63.03
2017-06-05T00:59:11.806Z,63.03
2017-06-05T01:01:13.313Z,63.03
2017-06-05T01:03:14.758Z,62.74
2017-06-05T01:05:16.752Z,62.46
2017-06-05T01:07:18.649Z,61.88
2017-06-05T01:09:20.111Z,62.37
2017-06-05T01:11:22.008Z,62.37
2017-06-05T01:13:24.531Z,61.88
2017-06-05T01:15:26.038Z,62.74
2017-06-05T01:17:28.580Z,63.13
2017-06-05T01:19:30.045Z,62.27
2017-06-05T01:21:31.513Z,62.46
2017-06-05T01:23:33.006Z,62.65
2017-06-05T01:25:34.490Z,62.94
2017-06-05T01:27:37.053Z,63.60
2017-06-05T01:29:39.537Z,63.80
2017-06-05T01:31:40.985Z,63.13
2017-06-05T01:33:43.707Z,63.80
2017-06-05T01:35:45.243Z,63.48
2017-06-05T01:37:47.134Z,63.32
2017-06-05T01:39:48.602Z,62.71
2017-06-05T01:41:50.504Z,62.43
2017-06-05T01:43:53.024Z,62.43
2017-06-05T01:45:54.868Z,62.81
2017-06-05T01:47:57.892Z,63.19
2017-06-05T01:49:59.348Z,63.48
2017-06-05T01:52:01.305Z,62.81
2017-06-05T01:54:03.114Z,63.00
2017-06-05T01:56:04.986Z,63.19
2017-06-05T01:58:07.396Z,63.19
2017-06-05T02:00:08.930Z,63.48
2017-06-05T02:02:10.394Z,62.81
2017-06-05T02:04:13.115Z,62.71
2017-06-05T02:06:14.894Z,62.90
2017-06-05T02:08:16.384Z,62.71
2017-06-05T02:10:17.861Z,62.33
2017-06-05T02:12:20.312Z,62.33
2017-06-05T02:14:22.737Z,63.00
2017-06-05T02:16:24.184Z,63.00
2017-06-05T02:18:26.081Z,63.00
2017-06-05T02:20:27.971Z,63.48
2017-06-05T02:22:29.430Z,63.64
2017-06-05T02:24:31.833Z,63.73
2017-06-05T02:26:33.424Z,64.22
2017-06-05T02:28:34.886Z,63.45
2017-06-05T02:30:36.793Z,64.31
2017-06-05T02:32:38.286Z,64.31
2017-06-05T02:34:40.393Z,64.02
2017-06-05T02:36:41.860Z,64.22
2017-06-05T02:38:43.433Z,64.12
2017-06-05T02:40:44.887Z,64.40
2017-06-05T02:42:47.356Z,64.12
2017-06-05T02:44:48.825Z,64.50
2017-06-05T02:46:50.282Z,64.40
2017-06-05T02:48:52.797Z,64.78
2017-06-05T02:50:54.290Z,64.59
2017-06-05T02:52:55.716Z,64.40
2017-06-05T02:54:57.633Z,64.98
2017-06-05T02:56:59.976Z,65.07
2017-06-05T02:59:01.510Z,65.64
2017-06-05T03:01:02.970Z,65.64
2017-06-05T03:03:04.867Z,64.98
2017-06-05T03:05:06.336Z,64.50
2017-06-05T03:07:07.797Z,65.07
2017-06-05T03:09:09.289Z,64.98
2017-06-05T03:11:10.742Z,65.07
2017-06-05T03:13:12.191Z,65.55
2017-06-05T03:15:13.644Z,64.88
2017-06-05T03:17:16.220Z,65.36
2017-06-05T03:19:18.683Z,66.22
2017-06-05T03:21:20.164Z,64.98
2017-06-05T03:23:22.721Z,65.93
2017-06-05T03:25:24.369Z,65.74
2017-06-05T03:27:25.815Z,66.13
2017-06-05T03:29:27.298Z,66.79
2017-06-05T03:31:29.181Z,66.70
2017-06-05T03:33:30.636Z,65.55
2017-06-05T03:35:33.149Z,65.93
2017-06-05T03:37:35.603Z,65.84
2017-06-05T03:39:37.463Z,65.84
2017-06-05T03:41:38.896Z,66.31
2017-06-05T03:43:40.999Z,65.84
2017-06-05T03:45:42.483Z,65.64
2017-06-05T03:47:43.924Z,65.36
2017-06-05T03:49:46.625Z,65.07
2017-06-05T03:51:48.173Z,65.55
2017-06-05T03:53:50.690Z,66.03
2017-06-05T03:55:52.237Z,65.26
2017-06-05T03:57:54.760Z,65.93
2017-06-05T03:59:56.305Z,64.88
2017-06-05T04:01:57.775Z,65.64
2017-06-05T04:04:00.502Z,66.41
2017-06-05T04:06:01.972Z,66.60
2017-06-05T04:08:04.632Z,66.31
2017-06-05T04:10:07.012Z,65.45
2017-06-05T04:12:08.910Z,64.98
2017-06-05T04:14:10.642Z,65.64
2017-06-05T04:16:12.156Z,65.55
2017-06-05T04:18:14.122Z,66.22
2017-06-05T04:20:16.518Z,66.31
2017-06-05T04:22:19.071Z,66.22
2017-06-05T04:24:20.557Z,65.45
2017-06-05T04:26:23.071Z,66.54
2017-06-05T04:28:25.671Z,66.25
2017-06-05T04:30:27.125Z,67.11
2017-06-05T04:32:29.012Z,64.82
2017-06-05T04:34:30.514Z,66.63
2017-06-05T04:36:31.973Z,66.44
2017-06-05T04:38:33.769Z,66.73
2017-06-05T04:40:35.229Z,65.68
2017-06-05T04:42:36.889Z,66.25
2017-06-05T04:44:38.388Z,65.68
2017-06-05T04:46:40.828Z,65.77
2017-06-05T04:48:42.804Z,65.77
2017-06-05T04:50:44.301Z,66.44
2017-06-05T04:52:46.870Z,65.14
2017-06-05T04:54:48.691Z,64.95
2017-06-05T04:56:50.648Z,65.81
2017-06-05T04:58:52.149Z,65.81
2017-06-05T05:00:54.760Z,65.14
2017-06-05T05:02:56.546Z,65.04
2017-06-05T05:04:58.057Z,65.14
2017-06-05T05:06:59.538Z,64.66
2017-06-05T05:09:00.992Z,65.94
2017-06-05T05:11:02.471Z,66.61
2017-06-05T05:13:04.311Z,65.84
2017-06-05T05:15:05.785Z,66.32
2017-06-05T05:17:08.585Z,64.31
2017-06-05T05:19:10.031Z,60.77
2017-06-05T05:21:12.597Z,60.77
2017-06-05T05:23:15.050Z,60.48
2017-06-05T05:25:16.825Z,61.44
2017-06-05T05:27:18.286Z,61.82
2017-06-05T05:29:19.746Z,60.77
2017-06-05T05:31:21.235Z,62.68
2017-06-05T05:33:22.786Z,62.90
2017-06-05T05:35:24.658Z,59.94
2017-06-05T05:37:26.511Z,59.84
2017-06-05T05:39:28.382Z,58.98
2017-06-05T05:41:29.885Z,58.40
2017-06-05T05:43:32.297Z,59.30
2017-06-05T05:45:33.804Z,59.58
2017-06-05T05:47:35.737Z,58.65
2017-06-05T05:49:37.917Z,55.40
2017-06-05T05:51:39.401Z,55.78
2017-06-05T05:53:40.827Z,54.27
2017-06-05T05:55:42.317Z,54.08
2017-06-05T05:57:44.271Z,54.30
2017-06-05T05:59:45.722Z,50.58
2017-06-05T06:01:47.626Z,49.55
2017-06-05T06:03:49.671Z,46.72
2017-06-05T06:05:51.566Z,44.65
2017-06-05T06:07:53.048Z,43.11
2017-06-05T06:09:55.551Z,43.47
2017-06-05T06:11:57.550Z,45.29
2017-06-05T06:13:59.089Z,46.14
2017-06-05T06:16:00.569Z,48.52
2017-06-05T06:18:02.503Z,48.33
2017-06-05T06:20:04.409Z,47.63
2017-06-05T06:22:06.266Z,48.85
2017-06-05T06:24:07.774Z,49.91
2017-06-05T06:26:09.256Z,49.91
2017-06-05T06:28:11.153Z,51.35
2017-06-05T06:30:13.660Z,50.70
2017-06-05T06:32:15.524Z,50.23
2017-06-05T06:34:17.097Z,50.05
2017-06-05T06:36:18.525Z,48.90
2017-06-05T06:38:21.127Z,49.10
2017-06-05T06:40:22.634Z,47.49
2017-06-05T06:42:24.497Z,46.23
2017-06-05T06:44:26.914Z,46.45
2017-06-05T06:46:28.450Z,46.47
2017-06-05T06:48:31.059Z,44.19
2017-06-05T06:50:32.989Z,44.49
2017-06-05T06:52:34.915Z,42.69
2017-06-05T06:54:36.442Z,41.55
2017-06-05T06:56:38.487Z,39.14
2017-06-05T06:58:40.752Z,40.80
2017-06-05T07:00:42.242Z,39.28
2017-06-05T07:02:43.740Z,38.60
2017-06-05T07:04:45.241Z,37.83
2017-06-05T07:06:46.709Z,37.75
2017-06-05T07:08:48.201Z,37.27
2017-06-05T07:10:49.691Z,36.40
2017-06-05T07:12:51.236Z,36.38
2017-06-05T07:14:52.749Z,36.09
2017-06-05T07:16:55.116Z,37.21
2017-06-05T07:18:57.110Z,37.31
2017-06-05T07:20:58.619Z,37.31
2017-06-05T07:23:00.089Z,38.37
2017-06-05T07:25:01.548Z,38.18
2017-06-05T07:27:03.497Z,38.74
2017-06-05T07:29:04.999Z,39.68
2017-06-05T07:31:06.473Z,41.88
2017-06-05T07:33:07.982Z,43.03
2017-06-05T07:35:09.474Z,45.22
2017-06-05T07:37:10.953Z,45.51
2017-06-05T07:39:13.738Z,43.28
2017-06-05T07:41:15.258Z,43.37
2017-06-05T07:43:17.839Z,42.89
2017-06-05T07:45:19.365Z,44.53
2017-06-05T07:47:20.850Z,43.57
2017-06-05T07:49:22.804Z,45.39
2017-06-05T07:51:24.696Z,44.34
2017-06-05T07:53:27.116Z,43.28
2017-06-05T07:55:28.575Z,46.16
2017-06-05T07:57:30.052Z,45.29
2017-06-05T07:59:31.574Z,44.43
2017-06-05T08:01:34.004Z,43.28
2017-06-05T08:03:35.529Z,42.70
2017-06-05T08:05:37.045Z,43.30
2017-06-05T08:07:39.635Z,45.32
2017-06-05T08:09:41.516Z,43.20
2017-06-05T08:11:43.426Z,44.55
2017-06-05T08:13:44.984Z,42.26
2017-06-05T08:15:46.860Z,43.99
2017-06-05T08:17:49.593Z,43.51
2017-06-05T08:19:52.315Z,42.74
2017-06-05T08:21:55.032Z,42.57
2017-06-05T08:23:57.112Z,42.86
2017-06-05T08:25:58.566Z,42.86
2017-06-05T08:28:00.489Z,41.71
2017-06-05T08:30:02.014Z,41.41
2017-06-05T08:32:04.484Z,40.66
2017-06-05T08:34:05.974Z,42.59
2017-06-05T08:36:08.114Z,42.47
2017-06-05T08:38:09.590Z,42.57
2017-06-05T08:40:11.060Z,42.09
2017-06-05T08:42:12.928Z,44.40
2017-06-05T08:44:14.395Z,41.44
2017-06-05T08:46:16.968Z,41.44
2017-06-05T08:48:18.372Z,39.12
2017-06-05T08:50:19.865Z,40.66
2017-06-05T08:52:22.712Z,39.99
2017-06-05T08:54:24.189Z,41.34
2017-06-05T08:56:25.840Z,42.30
2017-06-05T08:58:27.334Z,43.55
2017-06-05T09:00:29.984Z,42.49
2017-06-05T09:02:32.935Z,40.30
2017-06-05T09:04:34.406Z,41.17
2017-06-05T09:06:37.150Z,38.37
2017-06-05T09:08:38.961Z,38.46
2017-06-05T09:10:40.436Z,38.29
2017-06-05T09:12:41.936Z,38.29
2017-06-05T09:14:43.743Z,38.20
2017-06-05T09:16:46.665Z,38.39
2017-06-05T09:18:48.592Z,37.23
2017-06-05T09:20:50.068Z,40.82
2017-06-05T09:22:52.921Z,38.31
2017-06-05T09:24:54.421Z,39.37
2017-06-05T09:26:57.287Z,35.03
2017-06-05T09:28:58.736Z,35.72
2017-06-05T09:31:00.635Z,36.69
2017-06-05T09:33:02.794Z,37.29
2017-06-05T09:35:04.322Z,37.87
2017-06-05T09:37:06.698Z,36.32
2017-06-05T09:39:08.147Z,33.62
2017-06-05T09:41:10.664Z,34.39
2017-06-05T09:43:12.704Z,34.58
2017-06-05T09:45:15.335Z,33.23
2017-06-05T09:47:16.816Z,33.23
2017-06-05T09:49:18.722Z,31.59
2017-06-05T09:51:20.271Z,31.51
2017-06-05T09:53:21.745Z,33.63
2017-06-05T09:55:23.219Z,33.34
2017-06-05T09:57:24.729Z,31.23
2017-06-05T09:59:27.363Z,33.55
2017-06-05T10:01:28.865Z,33.34
2017-06-05T10:03:31.265Z,33.81
2017-06-05T10:05:33.426Z,34.97
2017-06-05T10:07:36.400Z,33.91
2017-06-05T10:09:37.878Z,34.31
2017-06-05T10:11:39.368Z,32.47
2017-06-05T10:13:40.859Z,31.70
2017-06-05T10:15:42.371Z,32.57
2017-06-05T10:17:43.839Z,31.99
2017-06-05T10:19:45.337Z,32.18
2017-06-05T10:21:47.862Z,30.94
2017-06-05T10:23:50.316Z,29.30
2017-06-05T10:25:51.772Z,31.33
2017-06-05T10:27:53.261Z,30.28
2017-06-05T10:29:54.806Z,30.18
2017-06-05T10:31:56.335Z,30.86
2017-06-05T10:33:58.210Z,30.68
2017-06-05T10:36:01.077Z,28.85
2017-06-05T10:38:02.613Z,29.60
2017-06-05T10:40:05.213Z,31.65
2017-06-05T10:42:07.092Z,31.16
2017-06-05T10:44:08.616Z,30.96
2017-06-05T10:46:10.648Z,30.65
2017-06-05T10:48:12.165Z,31.91
2017-06-05T10:50:14.034Z,33.34
2017-06-05T10:52:15.521Z,33.44
2017-06-05T10:54:16.989Z,33.81
2017-06-05T10:56:18.456Z,32.26
2017-06-05T10:58:20.366Z,31.70
2017-06-05T11:00:23.447Z,32.57
2017-06-05T11:02:26.393Z,31.91
2017-06-05T11:04:27.715Z,31.34
2017-06-05T11:06:29.237Z,32.02
2017-06-05T11:08:30.757Z,29.41
2017-06-05T11:10:32.249Z,31.04
2017-06-05T11:12:33.723Z,32.01
2017-06-05T11:14:35.638Z,32.67
2017-06-05T11:16:38.935Z,32.76
2017-06-05T11:18:40.857Z,34.60
2017-06-05T11:20:42.397Z,31.91
2017-06-05T11:22:43.892Z,32.29
2017-06-05T11:24:45.787Z,31.91
2017-06-05T11:26:47.342Z,31.23
2017-06-05T11:28:48.870Z,31.31
2017-06-05T11:30:51.414Z,31.31
2017-06-05T11:32:54.132Z,31.98
2017-06-05T11:34:56.509Z,32.75
2017-06-05T11:36:58.104Z,32.57
2017-06-05T11:39:00.923Z,32.94
2017-06-05T11:41:02.453Z,33.72
2017-06-05T11:43:05.187Z,34.12
2017-06-05T11:45:07.943Z,32.57
2017-06-05T11:47:09.543Z,32.67
2017-06-05T11:49:12.653Z,33.05
2017-06-05T11:51:14.060Z,31.81
2017-06-05T11:53:15.575Z,32.78
2017-06-05T11:55:17.055Z,33.84
2017-06-05T11:57:18.528Z,32.68
2017-06-05T11:59:20.355Z,32.20
2017-06-05T12:01:21.825Z,32.96
2017-06-05T12:03:23.255Z,33.34
2017-06-05T12:05:25.059Z,32.86
2017-06-05T12:07:28.090Z,34.20
2017-06-05T12:09:29.607Z,35.76
2017-06-05T12:11:32.335Z,36.03
2017-06-05T12:13:33.859Z,36.92
2017-06-05T12:15:35.366Z,34.91
2017-06-05T12:17:37.169Z,33.18
2017-06-05T12:19:38.664Z,30.47
2017-06-05T12:21:40.187Z,32.51
2017-06-05T12:23:43.226Z,30.85
2017-06-05T12:25:45.919Z,31.81
2017-06-05T12:27:47.534Z,31.71
2017-06-05T12:29:49.037Z,33.75
2017-06-05T12:31:50.988Z,33.94
2017-06-05T12:33:52.511Z,34.99
2017-06-05T12:35:54.031Z,36.24
2017-06-05T12:37:55.535Z,32.76
2017-06-05T12:39:58.542Z,33.65
2017-06-05T12:42:01.585Z,33.34
2017-06-05T12:44:04.690Z,33.84
2017-06-05T12:46:07.325Z,33.07
2017-06-05T12:48:08.689Z,34.12
2017-06-05T12:50:10.544Z,33.83
2017-06-05T12:52:12.021Z,33.25
2017-06-05T12:54:13.482Z,33.07
2017-06-05T12:56:14.968Z,33.84
2017-06-05T12:58:17.826Z,33.07
2017-06-05T13:00:19.290Z,35.88
2017-06-05T13:02:20.803Z,33.95
2017-06-05T13:04:24.113Z,32.42
2017-06-05T13:06:25.548Z,31.56
2017-06-05T13:08:27.042Z,30.68
2017-06-05T13:10:28.514Z,33.20
2017-06-05T13:12:30.424Z,30.58
2017-06-05T13:14:33.044Z,31.37
2017-06-05T13:16:34.569Z,28.86
2017-06-05T13:18:36.424Z,29.15
2017-06-05T13:20:38.275Z,29.05
2017-06-05T13:22:40.065Z,30.13
2017-06-05T13:24:41.527Z,29.15
2017-06-05T13:26:43.026Z,29.15
2017-06-05T13:28:44.528Z,30.00
2017-06-05T13:30:46.026Z,30.66
2017-06-05T13:32:49.280Z,31.83
2017-06-05T13:34:50.667Z,31.33
2017-06-05T13:36:53.359Z,30.94
2017-06-05T13:38:54.879Z,31.31
2017-06-05T13:40:56.737Z,31.99
2017-06-05T13:42:59.903Z,32.18
2017-06-05T13:45:01.428Z,32.28
2017-06-05T13:47:03.269Z,31.99
2017-06-05T13:49:04.768Z,32.67
2017-06-05T13:51:08.111Z,31.99
2017-06-05T13:53:09.489Z,32.01
2017-06-05T13:55:12.715Z,32.20
2017-06-05T13:57:14.612Z,32.39
2017-06-05T13:59:18.053Z,32.10
2017-06-05T14:01:19.640Z,31.71
2017-06-05T14:03:21.161Z,31.05
2017-06-05T14:05:22.681Z,31.63
2017-06-05T14:07:24.195Z,31.94
2017-06-05T14:09:25.667Z,30.60
2017-06-05T14:11:27.220Z,29.53
2017-06-05T14:13:28.683Z,28.38
2017-06-05T14:15:32.100Z,28.65
2017-06-05T14:17:33.462Z,28.55
2017-06-05T14:19:34.958Z,28.26
2017-06-05T14:21:36.443Z,29.13
2017-06-05T14:23:37.956Z,29.23
2017-06-05T14:25:41.425Z,29.22
2017-06-05T14:27:42.788Z,30.76
2017-06-05T14:29:44.678Z,29.99
2017-06-05T14:31:47.709Z,29.12
2017-06-05T14:33:49.294Z,31.04
2017-06-05T14:35:52.397Z,31.22
2017-06-05T14:37:53.799Z,31.22
2017-06-05T14:39:55.335Z,30.63
2017-06-05T14:41:56.806Z,29.86
2017-06-05T14:43:58.277Z,30.54
2017-06-05T14:45:59.747Z,30.35
2017-06-05T14:48:02.989Z,30.73
2017-06-05T14:50:06.523Z,31.31
2017-06-05T14:52:07.987Z,31.51
2017-06-05T14:54:09.708Z,31.71
2017-06-05T14:56:11.661Z,31.04
2017-06-05T14:58:15.109Z,32.20
2017-06-05T15:00:17.018Z,30.93
2017-06-05T15:02:18.875Z,32.09
2017-06-05T15:04:20.377Z,31.70
2017-06-05T15:06:22.216Z,31.51
2017-06-05T15:08:23.704Z,32.96
2017-06-05T15:10:25.238Z,31.99
2017-06-05T15:12:27.061Z,31.70
2017-06-05T15:14:28.630Z,33.25
2017-06-05T15:16:30.088Z,31.89
2017-06-05T15:18:31.612Z,32.57
2017-06-05T15:20:33.501Z,31.31
2017-06-05T15:22:36.782Z,31.13
2017-06-05T15:24:38.368Z,32.10
2017-06-05T15:26:40.521Z,30.36
2017-06-05T15:28:43.670Z,30.46
2017-06-05T15:30:45.100Z,30.75
2017-06-05T15:32:46.601Z,31.81
2017-06-05T15:34:49.269Z,33.65
2017-06-05T15:37:34.252Z,31.62
2017-06-05T15:39:35.889Z,31.71
2017-06-05T15:41:40.411Z,30.55
2017-06-05T15:44:25.978Z,30.75
2017-06-05T15:47:10.291Z,30.46
2017-06-05T15:49:12.623Z,32.39
2017-06-05T15:51:15.137Z,30.94
2017-06-05T15:53:16.855Z,31.91
2017-06-05T15:55:18.429Z,31.71
2017-06-05T15:57:20.317Z,32.18
2017-06-05T15:59:21.962Z,32.01
2017-06-05T16:01:23.787Z,32.01
2017-06-05T16:03:25.626Z,32.10
2017-06-05T16:05:27.573Z,33.18
2017-06-05T16:07:29.526Z,32.89
2017-06-05T16:09:31.682Z,30.47
2017-06-05T16:11:33.618Z,31.93
2017-06-05T16:13:35.565Z,30.55
2017-06-05T16:15:37.513Z,30.57
2017-06-05T16:17:39.465Z,29.78
2017-06-05T16:19:41.495Z,30.17
2017-06-05T16:21:43.311Z,30.54
2017-06-05T16:23:45.367Z,31.22
2017-06-05T16:26:28.164Z,31.80
2017-06-05T16:28:32.809Z,31.41
2017-06-05T16:31:18.724Z,30.54
2017-06-05T16:34:01.583Z,30.93
2017-06-05T16:36:03.274Z,33.83
2017-06-05T16:38:04.778Z,31.99
2017-06-05T16:40:08.113Z,30.91
2017-06-05T16:42:10.082Z,30.82
2017-06-05T16:44:11.747Z,31.41
2017-06-05T16:46:13.440Z,32.76
2017-06-05T16:48:14.972Z,32.67
2017-06-05T16:50:17.464Z,32.67
2017-06-05T16:52:19.272Z,33.54
2017-06-05T16:54:20.974Z,33.83
2017-06-05T16:56:23.582Z,33.54
2017-06-05T16:58:25.198Z,32.28
2017-06-05T17:00:26.963Z,31.89
2017-06-05T17:02:28.787Z,33.15
2017-06-05T17:04:30.227Z,32.47
2017-06-05T17:06:31.727Z,34.52
2017-06-05T17:08:33.178Z,33.84
2017-06-05T17:10:34.639Z,31.71
2017-06-05T17:12:36.101Z,33.07
2017-06-05T17:14:38.492Z,32.59
2017-06-05T17:16:40.067Z,30.46
2017-06-05T17:18:41.533Z,31.04
2017-06-05T17:20:43.101Z,31.05
2017-06-05T17:22:44.568Z,33.09
2017-06-05T17:24:46.053Z,33.18
2017-06-05T17:26:48.580Z,32.60
2017-06-05T17:28:50.191Z,31.05
2017-06-05T17:30:51.709Z,32.70
2017-06-05T17:32:53.267Z,32.60
2017-06-05T17:34:54.825Z,29.99
2017-06-05T17:36:56.362Z,30.38
2017-06-05T17:38:58.723Z,29.70
2017-06-05T17:41:01.040Z,30.36
2017-06-05T17:43:03.552Z,30.57
2017-06-05T17:45:05.842Z,30.75
2017-06-05T17:47:07.325Z,30.85
2017-06-05T17:49:09.751Z,31.23
2017-06-05T17:51:11.399Z,30.83
2017-06-05T17:53:13.166Z,30.75
2017-06-05T17:55:14.681Z,31.12
2017-06-05T17:57:16.195Z,31.51
2017-06-05T17:59:18.621Z,31.12
2017-06-05T18:01:20.247Z,31.60
2017-06-05T18:03:21.760Z,31.60
2017-06-05T18:05:23.199Z,32.96
2017-06-05T18:07:24.638Z,31.99
2017-06-05T18:09:26.075Z,32.09
2017-06-05T18:11:27.516Z,32.09
2017-06-05T18:13:28.951Z,31.99
2017-06-05T18:15:30.390Z,31.99
2017-06-05T18:17:31.829Z,32.84
2017-06-05T18:19:33.272Z,32.65
2017-06-05T18:21:34.710Z,33.33
2017-06-05T18:23:36.148Z,34.41
2017-06-05T18:25:37.587Z,33.15
2017-06-05T18:27:39.024Z,35.94
2017-06-05T18:29:41.493Z,34.10
2017-06-05T18:31:43.109Z,33.81
2017-06-05T18:33:44.581Z,34.00
2017-06-05T18:35:46.068Z,35.06
2017-06-05T18:37:47.503Z,34.10
2017-06-05T18:39:48.939Z,36.32
2017-06-05T18:41:50.375Z,35.45
2017-06-05T18:43:51.810Z,36.11
2017-06-05T18:45:54.422Z,36.50
2017-06-05T18:47:56.190Z,35.44
2017-06-05T18:49:58.623Z,37.65
2017-06-05T18:52:00.105Z,37.37
2017-06-05T18:54:01.611Z,36.59
2017-06-05T18:56:03.058Z,37.17
2017-06-05T18:58:04.526Z,37.37
2017-06-05T19:00:06.293Z,37.37
2017-06-05T19:02:08.069Z,37.54
2017-06-05T19:04:09.635Z,37.35
2017-06-05T19:06:12.046Z,38.31
2017-06-05T19:08:13.627Z,39.18
2017-06-05T19:10:15.131Z,39.18
2017-06-05T19:12:16.849Z,39.28
2017-06-05T19:14:18.286Z,39.54
2017-06-05T19:16:19.778Z,39.26
2017-06-05T19:18:21.653Z,39.57
2017-06-05T19:20:23.861Z,39.64
2017-06-05T19:22:25.357Z,41.48
2017-06-05T19:24:27.720Z,40.32
2017-06-05T19:26:29.531Z,41.86
2017-06-05T19:28:32.218Z,41.67
2017-06-05T19:30:36.924Z,39.91
2017-06-05T19:32:38.738Z,41.84
2017-06-05T19:34:41.778Z,41.94
2017-06-05T19:36:43.513Z,42.13
2017-06-05T19:38:45.393Z,42.32
2017-06-05T19:40:47.108Z,41.55
2017-06-05T19:42:48.864Z,41.94
2017-06-05T19:44:50.630Z,42.79
2017-06-05T19:46:52.547Z,44.04
2017-06-05T19:48:54.292Z,42.69
2017-06-05T19:50:56.123Z,43.55
2017-06-05T19:52:57.928Z,43.37
2017-06-05T19:54:59.767Z,43.54
2017-06-05T19:57:02.262Z,43.54
2017-06-05T19:59:04.045Z,43.63
2017-06-05T20:01:05.875Z,44.59
2017-06-05T20:03:07.679Z,44.49
2017-06-05T20:05:09.185Z,43.82
2017-06-05T20:07:11.613Z,44.69
2017-06-05T20:09:13.306Z,44.38
2017-06-05T20:11:14.811Z,44.48
2017-06-05T20:13:16.825Z,44.76
2017-06-05T20:15:18.340Z,43.99
2017-06-05T20:17:19.815Z,45.53
2017-06-05T20:19:21.427Z,44.86
2017-06-05T20:21:22.968Z,44.57
2017-06-05T20:23:24.790Z,44.48
2017-06-05T20:25:26.802Z,45.44
2017-06-05T20:27:28.689Z,44.48
2017-06-05T20:29:30.713Z,44.67
2017-06-05T20:31:32.623Z,45.34
2017-06-05T20:33:34.166Z,45.05
2017-06-05T20:35:36.127Z,44.74
2017-06-05T20:37:38.176Z,45.42
2017-06-05T20:39:39.934Z,44.55
2017-06-05T20:41:42.737Z,45.51
2017-06-05T20:43:44.593Z,44.84
2017-06-05T20:45:46.984Z,45.42
2017-06-05T20:47:48.506Z,44.84
2017-06-05T20:49:50.508Z,46.67
2017-06-05T20:51:52.363Z,46.47
2017-06-05T20:53:54.223Z,46.28
2017-06-05T20:55:56.139Z,46.57
2017-06-05T20:57:58.117Z,46.64
2017-06-05T21:00:00.059Z,47.82
2017-06-05T21:02:01.848Z,47.31
2017-06-05T21:04:03.641Z,46.84
2017-06-05T21:06:05.331Z,46.16
2017-06-05T21:08:07.063Z,46.55
2017-06-05T21:10:08.919Z,47.80
2017-06-05T21:12:10.568Z,46.64
2017-06-05T21:14:12.206Z,46.06
2017-06-05T21:16:13.817Z,46.64
2017-06-05T21:18:15.728Z,46.74
2017-06-05T21:20:17.642Z,46.74
2017-06-05T21:22:19.339Z,46.93
2017-06-05T21:24:21.003Z,47.41
2017-06-05T21:26:22.876Z,47.80
2017-06-05T21:28:24.609Z,47.61
2017-06-05T21:30:26.372Z,47.70
2017-06-05T21:32:28.064Z,48.35
2017-06-05T21:34:29.989Z,47.99
2017-06-05T21:36:31.794Z,48.08
2017-06-05T21:38:33.334Z,46.72
2017-06-05T21:40:35.281Z,47.49
2017-06-05T21:42:36.959Z,47.68
2017-06-05T21:44:38.830Z,47.58
2017-06-05T21:46:40.708Z,48.16
2017-06-05T21:48:42.431Z,48.16
2017-06-05T21:50:44.124Z,47.77
2017-06-05T21:52:46.018Z,47.77
2017-06-05T21:54:47.864Z,48.07
2017-06-05T21:56:49.700Z,46.53
2017-06-05T21:58:51.375Z,47.58
2017-06-05T22:00:53.031Z,46.72
2017-06-05T22:02:54.696Z,47.68
2017-06-05T22:04:56.260Z,47.30
2017-06-05T22:06:57.995Z,46.14
2017-06-05T22:08:59.666Z,45.76
2017-06-05T22:11:01.541Z,47.87
2017-06-05T22:13:03.521Z,47.10
2017-06-05T22:15:05.136Z,46.53
2017-06-05T22:17:07.044Z,47.77
2017-06-05T22:19:08.982Z,47.87
2017-06-05T22:21:10.602Z,47.39
2017-06-05T22:23:12.391Z,47.20
2017-06-05T22:25:14.311Z,47.68
2017-06-05T22:27:16.173Z,47.30
2017-06-05T22:29:17.737Z,47.20
2017-06-05T22:31:19.396Z,47.58
2017-06-05T22:33:21.343Z,47.77
2017-06-05T22:35:22.970Z,47.39
2017-06-05T22:37:24.713Z,48.23
2017-06-05T22:39:26.654Z,47.68
2017-06-05T22:41:28.529Z,47.39
2017-06-05T22:43:30.254Z,48.16
2017-06-05T22:45:32.119Z,46.81
2017-06-05T22:47:33.639Z,47.68
2017-06-05T22:49:35.167Z,47.39
2017-06-05T22:51:36.846Z,47.87
2017-06-05T22:53:38.858Z,47.10
2017-06-05T22:55:40.478Z,47.49
2017-06-05T22:57:42.086Z,46.91
2017-06-05T22:59:43.626Z,47.30
2017-06-05T23:01:45.293Z,47.94
2017-06-05T23:03:47.190Z,46.59
2017-06-05T23:05:49.036Z,46.89
2017-06-05T23:07:50.888Z,47.85
2017-06-05T23:09:52.466Z,48.33
2017-06-05T23:11:54.031Z,47.56
2017-06-05T23:13:55.902Z,47.46
2017-06-05T23:15:57.724Z,47.66
2017-06-05T23:17:59.646Z,47.75
2017-06-05T23:20:01.230Z,47.75
2017-06-05T23:22:02.970Z,47.36
2017-06-05T23:24:04.543Z,46.89
2017-06-05T23:26:06.425Z,47.66
2017-06-05T23:28:08.225Z,47.75
2017-06-05T23:30:09.993Z,47.66
2017-06-05T23:32:11.933Z,47.56
2017-06-05T23:34:13.631Z,48.23
2017-06-05T23:36:15.170Z,48.90
2017-06-05T23:38:16.821Z,48.13
2017-06-05T23:40:18.506Z,48.71
2017-06-05T23:42:20.451Z,48.04
2017-06-05T23:44:22.285Z,49.00
2017-06-05T23:46:23.845Z,48.52
2017-06-05T23:48:25.448Z,49.00
2017-06-05T23:50:27.356Z,48.33
2017-06-05T23:52:28.869Z,48.71
2017-06-05T23:54:30.562Z,49.87
2017-06-05T23:56:32.211Z,48.61
2017-06-05T23:58:33.692Z,49.00
